ENML/MOL METAR and TAF weather

Enter ICAO airport designator
Station Type Date Time Source
ENML METAR 2021/08/04 18:50 UTC NOAA

ENML 041850Z 36004KT 9999 FEW045 16/09 Q1012


Station Type Date Time Source
ENML Decoded METAR 2021/08/04 18:50 UTC NOAA

Molde / Aro, Norway (ENML) 62-45N 007-16E 3M
Aug 04, 2021 - 02:50 PM EDT / 2021.08.04 1850 UTC
Wind: from the N (360 degrees) at 5 MPH (4 KT):0
Visibility: greater than 7 mile(s):0
Sky conditions: mostly clear
Temperature: 60 F (16 C)
Dew Point: 48 F (9 C)
Relative Humidity: 63%
Pressure (altimeter): 29.88 in. Hg (1012 hPa)
ob: ENML 041850Z 36004KT 9999 FEW045 16/09 Q1012
cycle: 19

Station Type Date Time Source
ENML TAF UTC NOAA

Error!

Example: see airport list